Denver, Colorado
Traffic Map
Current Weather Conditions
Denver, Colorado
Broken Clouds
Broken Clouds
60°
Feels Like: 60°
Wind Chill: 60° Ceiling: 13000
Heat Index: 60° Visibility: 10mi
Dew Point: 43° Wind: 9mph
Humidity: 53% Direction: 260° (W)
Pressure: 30.04in Gusts: 0mph
Raw Report DataKBKF 310158Z 26008KT 10SM FEW070 BKN130 BKN220 16/06 A3004 RMK AO2A SLP115 T01550060
Traffic Incident Summary
Active as of:
Severity:
Category:
InformationThere was an issue retrieving the traffic information for this location. Please try a different location or try again shortly.
Advertisements
Track Severe Weather on mobile